DW1837 Weather Reports


Display with metric or nautical units.
time (UTC)temp
F
wind
direction
speed
MPH
gust
MPH
rain 1hr
in
rain 24hr
in
rain mn
in
humidity
%
barometer
mb
20190522203002 76 106 2.0 9.0 0.00 0.00 0.00 74 1023.0
20190522201503 76 117 2.0 6.0 0.00 0.00 0.00 75 1023.3
20190522200003 75 130 4.0 9.0 0.00 0.00 0.00 75 1023.3
20190522194501 75 90 2.0 4.0 0.00 0.00 0.00 76 1023.5
20190522193002 73 111 2.0 6.0 0.00 0.00 0.00 78 1023.8
20190522191503 73 138 2.0 12.0 0.00 0.00 0.00 79 1023.8
20190522190002 71 138 2.0 4.0 0.00 0.00 0.00 80 1024.0
20190522184502 71 109 2.0 6.0 0.00 0.00 0.00 82 1024.2
20190522183003 70 45 0.0 4.0 0.00 0.00 0.00 82 1024.2
20190522181502 70 17 2.0 3.0 0.00 0.00 0.00 83 1024.3
20190522180002 69 340 0.0 2.0 0.00 0.00 0.00 83 1024.2
20190522174502 69 350 0.0 3.0 0.00 0.00 0.00 85 1024.1
20190522173003 69 53 0.0 2.0 0.00 0.00 0.00 85 1024.2
20190522171503 68 25 0.0 2.0 0.00 0.00 0.00 86 1024.0
20190522170005 68 131 2.0 6.0 0.00 0.00 0.00 86 1023.9
20190522164502 68 120 0.0 3.0 0.00 0.00 0.00 87 1023.8
20190522163003 67 80 0.0 4.0 0.00 0.00 0.00 87 1023.7
20190522161503 67 96 2.0 8.0 0.00 0.00 0.00 87 1023.6
20190522160002 67 355 0.0 2.0 0.00 0.00 0.00 88 1023.5
20190522154503 67 24 0.0 3.0 0.00 0.00 0.00 88 1023.4
20190522153003 67 101 0.0 3.0 0.00 0.00 0.00 88 1023.2
20190522151507 66 204 0.0 2.0 0.00 0.00 0.00 89 1023.1
20190522150006 66 140 0.0 8.0 0.00 0.00 0.00 90 1023.0
20190522144503 66 126 2.0 6.0 0.00 0.00 0.00 89 1022.9
20190522143004 66 132 0.0 3.0 0.00 0.00 0.00 88 1022.8
20190522141506 66 8 0.0 3.0 0.00 0.00 0.00 88 1022.8
20190522140003 66 138 2.0 8.0 0.00 0.00 0.00 88 1022.8
20190522134503 66 86 0.0 2.0 0.00 0.00 0.00 88 1022.7
20190522133004 65 100 2.0 8.0 0.00 0.00 0.00 87 1022.6
20190522131502 66 117 2.0 8.0 0.00 0.00 0.00 87 1022.6
20190522130002 66 102 2.0 4.0 0.00 0.00 0.00 87 1022.3
20190522124503 66 107 0.0 2.0 0.00 0.00 0.00 87 1022.4
20190522123003 66 118 2.0 4.0 0.00 0.00 0.00 86 1022.5
20190522121503 66 116 2.0 6.0 0.00 0.00 0.00 86 1022.4
20190522120002 66 92 0.0 3.0 0.00 0.00 0.00 86 1022.3
20190522040027 66 0 0.0 0.0 0.00 0.00 0.00 89 1017.7
20190522034502 66 0 0.0 0.0 0.00 0.00 0.00 89 1017.6
20190522033003 66 0 0.0 0.0 0.00 0.00 0.00 88 1017.5
20190522031504 67 0 0.0 0.0 0.00 0.00 0.00 88 1017.3
20190522030003 67 0 0.0 0.0 0.00 0.00 0.00 87 1017.3
20190522024503 67 0 0.0 0.0 0.00 0.00 0.00 86 1017.2
20190522023002 68 0 0.0 0.0 0.00 0.00 0.00 85 1017.2
20190522021503 68 262 0.0 2.0 0.00 0.00 0.00 85 1017.0
20190522020003 69 0 0.0 0.0 0.00 0.00 0.00 84 1016.7
20190522014503 69 0 0.0 0.0 0.00 0.00 0.00 82 1016.4
20190522013003 70 0 0.0 0.0 0.00 0.00 0.00 81 1016.1
20190522011503 71 0 0.0 0.0 0.00 0.00 0.00 80 1015.8
20190522010004 72 0 0.0 0.0 0.00 0.00 0.00 79 1015.5
20190522004502 74 0 0.0 0.0 0.00 0.00 0.00 75 1015.2
20190522003003 75 0 0.0 0.0 0.00 0.00 0.00 74 1015.3
20190522001503 76 0 0.0 0.0 0.00 0.00 0.00 73 1015.3
20190522000003 78 0 0.0 0.0 0.00 0.00 0.00 69 1015.1
20190521234504 81 0 0.0 0.0 0.00 0.00 0.00 64 1015.0
20190521233002 84 0 0.0 0.0 0.00 0.00 0.00 53 1014.9
20190521231502 87 0 0.0 0.0 0.00 0.00 0.00 47 1014.8
20190521230003 90 249 0.0 2.0 0.00 0.00 0.00 43 1014.7
20190521224503 89 142 0.0 2.0 0.00 0.00 0.00 45 1014.7
20190521223003 89 238 0.0 3.0 0.00 0.00 0.00 43 1014.7
20190521221502 90 257 0.0 3.0 0.00 0.00 0.00 40 1014.7
20190521220003 89 287 0.0 2.0 0.00 0.00 0.00 42 1014.6
20190521214503 90 295 2.0 3.0 0.00 0.00 0.00 41 1014.6
20190521213002 90 249 0.0 6.0 0.00 0.00 0.00 39 1014.6
20190521211503 89 284 2.0 4.0 0.00 0.00 0.00 39 1014.5
20190521210003 89 184 2.0 4.0 0.00 0.00 0.00 38 1014.6
20190521204503 89 125 2.0 4.0 0.00 0.00 0.00 41 1014.5